Scott AFB/Midamerica Airport
KBLV : now visible

Airfield :











YOU CAN JOIN US ON...

 
LOGIN :

Register | Disclaimer

   EN    FR    IT 

 









Legend :    VFR   Marginal VFR   IFR   Intensive IFR   Very Intensive IFR
Visi :
Ceiling :
>= 8 km
>= 3000ft
5 to 8 km
1000 to 3000 ft
1500m to 5 km
500 to 1000 ft
800 to 1500m
200 to 500 ft
< 800m
< 200 ft
Symbols :   Thunderstorms  Fog  Heavy snow  Heavy precipitations  Wind > 20 kt






- Airport Elevation : 459 ft


KBLV - Scott AFB/Midamerica

CURRENT METAR :
  • 191056Z AUTO 00000KT 2 3/4SM BR CLR 19/19 A3007 RMK AO2 VIS 2 1/2V3 SLP182 T01900187 $

EXPIRED METARs :
  • 191046Z AUTO 00000KT 2 1/2SM BR CLR 19/19 A3006 RMK AO2 VIS 1V2 1/2 SLP179 $
  • 191036Z AUTO 00000KT 1 1/4SM BR CLR 20/19 A3006 RMK AO2 VIS 1 1/4V2 1/2 SLP179 $
  • 191031Z AUTO 00000KT 2 1/4SM BR CLR 20/19 A3006 RMK AO2 SLP178 $
  • 191011Z AUTO 00000KT 2 1/2SM BR CLR 20/19 A3006 RMK AO2 VIS 2 1/2V4 SLP178 $
  • 190956Z AUTO 00000KT 5SM BR CLR 20/19 A3006 RMK AO2 VIS 2 RWY14L SLP178 T01970192 $
  • 190906Z AUTO 00000KT 4SM BR CLR 20/20 A3006 RMK AO2 VIS 1 5/8 RWY32R SLP178 $
  • 190901Z AUTO 00000KT 3/4SM R14R/2200VP6000FT BR CLR 20/19 A3006 RMK AO2 SLP178 $
  • 190846Z AUTO 00000KT 2 3/4SM BR CLR 20/19 A3006 RMK AO2 VIS 2 3/4V4 VIS 1 3/8 RWY32R SLP178 $

TAF TAF KBLV
Valid from the 19 at 08:00 until the 20 at 14:00 UTC


190800Z 1908/2014 15007KT 6000 BR SKC QNH3003INS
BECMG 1912/1913 12009KT 9999 NSW SCT030 QNH2995INS
BECMG 1916/1917 11010G15KT 9999 BKN030 QNH2992INS
BECMG 1919/1920 13010G15KT 8000 -SHRA BKN020 QNH2990INS
TEMPO 1920/1923 6000 -TSRA BKN010CB
BECMG 2008/2009 18009KT 9999 NSW BKN015 QNH2993INS TX29/1917Z TN19/1911Z
KZKC FIR / North America



MET'MAP, your aeronautical weather chart ! - Copyright ORBIFLY December 2007 - Disclaimer

ORBIFLY MET'MAP TEAM :

Programming & Development : Alexandra Zaïnal
Concept & original design : Baudouin d'Aumeries
Assistance for programming : Marc-Olivier Méhu
Technical & hardware support : Manuel Goepfert

Contact : metmap@orbifly.com




SOURCES & CREDITS :

   NOAA       Earth
Advisory